sensor_id;sensor_type;location;lat;lon;timestamp;P1;durP1;ratioP1;P2;durP2;ratioP2
56917;SDS011;42805;52.818;17.224;2023-11-21T00:00:32;20.40;;;13.70;;
56917;SDS011;42805;52.818;17.224;2023-11-21T00:10:55;18.70;;;11.90;;
56917;SDS011;42805;52.818;17.224;2023-11-21T00:20:59;19.20;;;12.50;;
56917;SDS011;42805;52.818;17.224;2023-11-21T00:31:03;17.70;;;11.70;;
56917;SDS011;42805;52.818;17.224;2023-11-21T00:41:07;17.60;;;11.20;;
56917;SDS011;42805;52.818;17.224;2023-11-21T00:51:11;15.70;;;10.40;;
56917;SDS011;42805;52.818;17.224;2023-11-21T01:01:15;16.10;;;10.30;;
56917;SDS011;42805;52.818;17.224;2023-11-21T01:11:19;17.20;;;11.20;;
56917;SDS011;42805;52.818;17.224;2023-11-21T01:21:23;14.90;;;9.50;;
56917;SDS011;42805;52.818;17.224;2023-11-21T01:31:27;12.10;;;8.50;;
56917;SDS011;42805;52.818;17.224;2023-11-21T01:41:33;12.80;;;8.50;;
56917;SDS011;42805;52.818;17.224;2023-11-21T01:51:38;11.80;;;8.00;;
56917;SDS011;42805;52.818;17.224;2023-11-21T02:01:42;13.30;;;9.20;;
56917;SDS011;42805;52.818;17.224;2023-11-21T02:11:45;11.60;;;7.90;;
56917;SDS011;42805;52.818;17.224;2023-11-21T02:21:50;11.30;;;8.20;;
56917;SDS011;42805;52.818;17.224;2023-11-21T02:31:57;9.60;;;7.70;;
56917;SDS011;42805;52.818;17.224;2023-11-21T02:42:01;9.70;;;7.10;;
56917;SDS011;42805;52.818;17.224;2023-11-21T02:52:05;9.20;;;7.00;;
56917;SDS011;42805;52.818;17.224;2023-11-21T03:02:09;8.80;;;6.70;;
56917;SDS011;42805;52.818;17.224;2023-11-21T03:12:12;8.50;;;6.50;;
56917;SDS011;42805;52.818;17.224;2023-11-21T03:22:16;12.10;;;7.90;;
56917;SDS011;42805;52.818;17.224;2023-11-21T03:32:20;10.60;;;7.70;;
56917;SDS011;42805;52.818;17.224;2023-11-21T03:42:24;10.60;;;7.80;;
56917;SDS011;42805;52.818;17.224;2023-11-21T03:52:30;11.40;;;8.00;;
56917;SDS011;42805;52.818;17.224;2023-11-21T04:02:34;11.50;;;7.80;;
56917;SDS011;42805;52.818;17.224;2023-11-21T04:12:38;14.30;;;10.30;;
56917;SDS011;42805;52.818;17.224;2023-11-21T04:22:43;13.30;;;9.90;;
56917;SDS011;42805;52.818;17.224;2023-11-21T04:32:47;15.50;;;11.50;;
56917;SDS011;42805;52.818;17.224;2023-11-21T04:42:51;17.70;;;12.60;;
56917;SDS011;42805;52.818;17.224;2023-11-21T04:52:55;15.70;;;11.60;;
56917;SDS011;42805;52.818;17.224;2023-11-21T05:02:59;21.10;;;13.90;;
56917;SDS011;42805;52.818;17.224;2023-11-21T05:13:04;15.00;;;10.90;;
56917;SDS011;42805;52.818;17.224;2023-11-21T05:23:14;13.30;;;10.40;;
56917;SDS011;42805;52.818;17.224;2023-11-21T05:33:18;16.30;;;12.10;;
56917;SDS011;42805;52.818;17.224;2023-11-21T05:43:22;17.30;;;12.10;;
56917;SDS011;42805;52.818;17.224;2023-11-21T05:53:25;16.00;;;12.00;;
56917;SDS011;42805;52.818;17.224;2023-11-21T06:03:29;19.90;;;13.60;;
56917;SDS011;42805;52.818;17.224;2023-11-21T06:13:33;18.80;;;13.70;;
56917;SDS011;42805;52.818;17.224;2023-11-21T06:23:37;21.40;;;14.70;;
56917;SDS011;42805;52.818;17.224;2023-11-21T06:33:41;21.20;;;14.50;;
56917;SDS011;42805;52.818;17.224;2023-11-21T06:43:45;21.80;;;14.50;;
56917;SDS011;42805;52.818;17.224;2023-11-21T06:53:49;26.60;;;18.30;;
56917;SDS011;42805;52.818;17.224;2023-11-21T07:03:53;34.50;;;23.20;;
56917;SDS011;42805;52.818;17.224;2023-11-21T07:13:57;30.70;;;18.70;;
56917;SDS011;42805;52.818;17.224;2023-11-21T07:24:01;30.70;;;19.90;;
56917;SDS011;42805;52.818;17.224;2023-11-21T07:34:06;33.90;;;20.60;;
56917;SDS011;42805;52.818;17.224;2023-11-21T07:44:11;33.40;;;20.20;;
56917;SDS011;42805;52.818;17.224;2023-11-21T07:54:15;27.60;;;17.50;;
56917;SDS011;42805;52.818;17.224;2023-11-21T08:04:20;22.40;;;14.70;;
56917;SDS011;42805;52.818;17.224;2023-11-21T08:14:24;23.70;;;15.90;;
56917;SDS011;42805;52.818;17.224;2023-11-21T08:24:30;30.70;;;17.60;;
56917;SDS011;42805;52.818;17.224;2023-11-21T08:34:34;26.20;;;16.60;;
56917;SDS011;42805;52.818;17.224;2023-11-21T08:44:38;28.00;;;17.20;;
56917;SDS011;42805;52.818;17.224;2023-11-21T08:54:43;29.30;;;19.30;;
56917;SDS011;42805;52.818;17.224;2023-11-21T09:04:49;25.40;;;16.40;;
56917;SDS011;42805;52.818;17.224;2023-11-21T09:14:56;24.10;;;15.60;;
56917;SDS011;42805;52.818;17.224;2023-11-21T09:24:59;24.40;;;14.80;;
56917;SDS011;42805;52.818;17.224;2023-11-21T09:35:04;21.80;;;14.10;;
56917;SDS011;42805;52.818;17.224;2023-11-21T09:55:24;23.80;;;14.10;;
56917;SDS011;42805;52.818;17.224;2023-11-21T10:05:34;18.20;;;11.50;;
56917;SDS011;42805;52.818;17.224;2023-11-21T10:15:41;18.40;;;11.60;;
56917;SDS011;42805;52.818;17.224;2023-11-21T10:25:52;20.50;;;12.90;;
56917;SDS011;42805;52.818;17.224;2023-11-21T10:35:58;24.40;;;14.50;;
56917;SDS011;42805;52.818;17.224;2023-11-21T10:46:04;23.80;;;14.10;;
56917;SDS011;42805;52.818;17.224;2023-11-21T10:56:09;22.00;;;13.60;;
56917;SDS011;42805;52.818;17.224;2023-11-21T11:06:21;22.30;;;14.00;;
56917;SDS011;42805;52.818;17.224;2023-11-21T11:16:30;22.90;;;13.40;;
56917;SDS011;42805;52.818;17.224;2023-11-21T11:26:44;24.20;;;14.20;;
56917;SDS011;42805;52.818;17.224;2023-11-21T11:36:54;24.50;;;13.50;;
56917;SDS011;42805;52.818;17.224;2023-11-21T11:47:04;32.80;;;15.70;;
56917;SDS011;42805;52.818;17.224;2023-11-21T11:57:24;27.90;;;14.50;;
56917;SDS011;42805;52.818;17.224;2023-11-21T12:07:39;19.00;;;12.00;;
56917;SDS011;42805;52.818;17.224;2023-11-21T12:17:48;18.70;;;11.40;;
56917;SDS011;42805;52.818;17.224;2023-11-21T12:27:52;21.30;;;12.30;;
56917;SDS011;42805;52.818;17.224;2023-11-21T12:37:57;20.30;;;12.20;;
56917;SDS011;42805;52.818;17.224;2023-11-21T12:48:04;19.80;;;12.30;;
56917;SDS011;42805;52.818;17.224;2023-11-21T12:58:12;19.00;;;12.40;;
56917;SDS011;42805;52.818;17.224;2023-11-21T13:08:17;25.80;;;14.10;;
56917;SDS011;42805;52.818;17.224;2023-11-21T13:18:27;21.50;;;12.20;;
56917;SDS011;42805;52.818;17.224;2023-11-21T13:28:32;17.50;;;11.70;;
56917;SDS011;42805;52.818;17.224;2023-11-21T13:38:37;20.90;;;12.50;;
56917;SDS011;42805;52.818;17.224;2023-11-21T13:48:46;25.20;;;14.10;;
56917;SDS011;42805;52.818;17.224;2023-11-21T14:21:04;21.30;;;12.70;;
56917;SDS011;42805;52.818;17.224;2023-11-21T14:31:12;20.80;;;12.30;;
56917;SDS011;42805;52.818;17.224;2023-11-21T14:41:22;19.50;;;12.20;;
56917;SDS011;42805;52.818;17.224;2023-11-21T14:51:28;20.50;;;12.20;;
56917;SDS011;42805;52.818;17.224;2023-11-21T15:01:32;16.70;;;11.10;;
56917;SDS011;42805;52.818;17.224;2023-11-21T15:11:55;17.50;;;10.90;;
56917;SDS011;42805;52.818;17.224;2023-11-21T15:22:05;16.80;;;10.00;;
56917;SDS011;42805;52.818;17.224;2023-11-21T15:32:10;15.30;;;10.30;;
56917;SDS011;42805;52.818;17.224;2023-11-21T15:42:15;14.80;;;8.50;;
56917;SDS011;42805;52.818;17.224;2023-11-21T15:52:19;16.60;;;10.80;;
56917;SDS011;42805;52.818;17.224;2023-11-21T16:02:23;13.60;;;7.60;;
56917;SDS011;42805;52.818;17.224;2023-11-21T16:12:28;13.30;;;7.60;;
56917;SDS011;42805;52.818;17.224;2023-11-21T16:22:32;17.00;;;8.50;;
56917;SDS011;42805;52.818;17.224;2023-11-21T16:32:38;20.60;;;9.30;;
56917;SDS011;42805;52.818;17.224;2023-11-21T16:42:43;25.00;;;11.80;;
56917;SDS011;42805;52.818;17.224;2023-11-21T16:52:46;17.10;;;8.30;;
56917;SDS011;42805;52.818;17.224;2023-11-21T17:02:52;17.30;;;8.60;;
56917;SDS011;42805;52.818;17.224;2023-11-21T17:12:56;20.50;;;9.70;;
56917;SDS011;42805;52.818;17.224;2023-11-21T17:23:00;24.70;;;9.40;;
56917;SDS011;42805;52.818;17.224;2023-11-21T17:33:06;15.70;;;8.70;;
56917;SDS011;42805;52.818;17.224;2023-11-21T17:43:11;17.30;;;9.00;;
56917;SDS011;42805;52.818;17.224;2023-11-21T17:53:17;26.00;;;13.30;;
56917;SDS011;42805;52.818;17.224;2023-11-21T18:03:21;22.60;;;11.20;;
56917;SDS011;42805;52.818;17.224;2023-11-21T18:13:26;16.70;;;9.70;;
56917;SDS011;42805;52.818;17.224;2023-11-21T18:23:30;16.60;;;8.00;;
56917;SDS011;42805;52.818;17.224;2023-11-21T18:33:34;13.90;;;8.50;;
56917;SDS011;42805;52.818;17.224;2023-11-21T18:43:41;18.50;;;11.20;;
56917;SDS011;42805;52.818;17.224;2023-11-21T18:53:47;16.90;;;9.40;;
56917;SDS011;42805;52.818;17.224;2023-11-21T19:03:52;18.90;;;10.80;;
56917;SDS011;42805;52.818;17.224;2023-11-21T19:13:57;22.50;;;12.50;;
56917;SDS011;42805;52.818;17.224;2023-11-21T19:24:13;18.10;;;11.10;;
56917;SDS011;42805;52.818;17.224;2023-11-21T19:34:22;19.20;;;10.20;;
56917;SDS011;42805;52.818;17.224;2023-11-21T19:44:30;26.50;;;15.20;;
56917;SDS011;42805;52.818;17.224;2023-11-21T19:54:36;18.90;;;10.90;;
56917;SDS011;42805;52.818;17.224;2023-11-21T20:04:40;20.40;;;11.50;;
56917;SDS011;42805;52.818;17.224;2023-11-21T20:14:52;16.60;;;10.60;;
56917;SDS011;42805;52.818;17.224;2023-11-21T20:24:56;19.00;;;10.10;;
56917;SDS011;42805;52.818;17.224;2023-11-21T20:35:02;20.10;;;10.50;;
56917;SDS011;42805;52.818;17.224;2023-11-21T20:45:13;16.30;;;9.00;;
56917;SDS011;42805;52.818;17.224;2023-11-21T20:55:28;20.00;;;11.60;;
56917;SDS011;42805;52.818;17.224;2023-11-21T21:05:36;17.10;;;11.50;;
56917;SDS011;42805;52.818;17.224;2023-11-21T21:15:44;18.30;;;9.60;;
56917;SDS011;42805;52.818;17.224;2023-11-21T21:25:52;15.30;;;8.50;;
56917;SDS011;42805;52.818;17.224;2023-11-21T21:36:00;13.30;;;7.40;;
56917;SDS011;42805;52.818;17.224;2023-11-21T21:46:07;16.00;;;8.20;;
56917;SDS011;42805;52.818;17.224;2023-11-21T21:56:18;12.50;;;7.00;;
56917;SDS011;42805;52.818;17.224;2023-11-21T22:06:22;14.30;;;7.10;;
56917;SDS011;42805;52.818;17.224;2023-11-21T22:16:29;12.10;;;6.40;;
56917;SDS011;42805;52.818;17.224;2023-11-21T22:26:38;11.60;;;6.40;;
56917;SDS011;42805;52.818;17.224;2023-11-21T22:36:42;14.40;;;6.70;;
56917;SDS011;42805;52.818;17.224;2023-11-21T22:46:46;13.20;;;6.60;;
56917;SDS011;42805;52.818;17.224;2023-11-21T22:56:51;16.60;;;7.50;;
56917;SDS011;42805;52.818;17.224;2023-11-21T23:06:56;12.70;;;7.20;;
56917;SDS011;42805;52.818;17.224;2023-11-21T23:17:00;15.90;;;7.40;;
56917;SDS011;42805;52.818;17.224;2023-11-21T23:27:04;15.10;;;7.20;;
56917;SDS011;42805;52.818;17.224;2023-11-21T23:37:11;16.50;;;7.30;;
56917;SDS011;42805;52.818;17.224;2023-11-21T23:47:15;15.90;;;7.90;;
56917;SDS011;42805;52.818;17.224;2023-11-21T23:57:19;14.40;;;7.40;;
